Time;durP1;ratioP1;P1;durP2;ratioP2;P2;SDS_P1;SDS_P2;PMS_P1;PMS_P2;Temp;Humidity;BMP_temperature;BMP_pressure;BME280_temperature;BME280_humidity;BME280_pressure;Samples;Min_cycle;Max_cycle;Signal;HPM_P1;HPM_P2
2022/12/04 00:00:10;;;;;;;5.50;5.35;;;7.40;99.90;;;;;;4218767;28;20071;-84
2022/12/04 00:02:30;;;;;;;5.05;4.90;;;7.50;99.90;;;;;;4229569;28;20047;-85
2022/12/04 00:04:50;;;;;;;5.88;5.78;;;7.60;99.90;;;;;;4213496;28;20092;-85
2022/12/04 00:07:10;;;;;;;6.90;6.60;;;7.80;99.90;;;;;;4215253;28;20043;-84
2022/12/04 00:09:29;;;;;;;6.10;5.68;;;7.80;99.90;;;;;;4226099;28;20073;-84
2022/12/04 00:11:49;;;;;;;5.93;5.72;;;7.80;99.90;;;;;;4209820;28;20075;-85
2022/12/04 00:14:09;;;;;;;6.45;6.15;;;7.80;99.90;;;;;;4225955;28;20050;-84
2022/12/04 00:16:30;;;;;;;6.00;5.82;;;7.90;99.90;;;;;;4232429;28;20269;-84
2022/12/04 00:18:51;;;;;;;6.50;6.30;;;8.00;99.90;;;;;;4230147;28;20099;-84
2022/12/04 00:21:13;;;;;;;7.65;7.43;;;7.90;99.90;;;;;;4213484;28;20374;-84
2022/12/04 00:23:34;;;;;;;9.30;8.50;;;7.50;99.90;;;;;;4209257;28;20355;-84
2022/12/04 00:26:06;;;;;;;8.50;8.23;;;7.30;99.90;;;;;;4219795;28;20055;-84
2022/12/04 00:28:26;;;;;;;10.18;9.65;;;7.10;99.90;;;;;;4226302;28;20067;-84
2022/12/04 00:30:46;;;;;;;7.88;7.40;;;7.10;99.90;;;;;;4215906;28;20143;-84
2022/12/04 00:33:06;;;;;;;11.70;10.57;;;7.10;99.90;;;;;;4228687;28;20046;-84
2022/12/04 00:35:25;;;;;;;12.27;11.23;;;7.00;99.90;;;;;;4221984;28;20339;-84
2022/12/04 00:37:45;;;;;;;9.57;9.18;;;7.00;99.90;;;;;;4216378;28;20067;-84
2022/12/04 00:40:05;;;;;;;8.90;8.50;;;6.90;99.90;;;;;;4215327;28;20116;-84
2022/12/04 00:42:25;;;;;;;8.05;7.65;;;7.00;99.90;;;;;;4227993;28;20047;-84
2022/12/04 00:44:45;;;;;;;8.32;7.93;;;7.00;99.90;;;;;;4226004;28;20378;-84
2022/12/04 00:47:05;;;;;;;12.20;11.30;;;7.20;99.90;;;;;;4226559;28;20374;-84
2022/12/04 00:49:24;;;;;;;7.68;7.47;;;7.20;99.90;;;;;;4231119;28;20251;-84
2022/12/04 00:51:44;;;;;;;7.10;6.78;;;7.30;99.90;;;;;;4228167;28;20081;-84
2022/12/04 00:54:04;;;;;;;7.07;6.78;;;7.40;99.90;;;;;;4221839;28;20120;-84
2022/12/04 00:56:25;;;;;;;7.20;7.10;;;7.80;99.90;;;;;;4226002;28;20046;-84
2022/12/04 00:58:46;;;;;;;6.97;6.78;;;7.80;99.90;;;;;;4218252;28;20086;-84
2022/12/04 01:01:09;;;;;;;8.82;8.23;;;7.80;99.90;;;;;;4216257;28;20066;-84
2022/12/04 01:03:29;;;;;;;16.00;14.43;;;7.80;99.90;;;;;;4227404;28;20078;-84
2022/12/04 01:05:49;;;;;;;11.57;10.70;;;7.70;99.90;;;;;;4212494;28;20062;-84
2022/12/04 01:08:11;;;;;;;9.27;8.77;;;7.80;99.90;;;;;;4228154;28;20074;-84
2022/12/04 01:10:31;;;;;;;9.70;9.10;;;8.00;99.90;;;;;;4225003;28;20364;-84
2022/12/04 01:12:52;;;;;;;9.45;8.90;;;8.30;99.90;;;;;;4221521;28;20092;-84
2022/12/04 01:15:12;;;;;;;9.20;8.63;;;8.20;99.90;;;;;;4230896;28;20047;-84
2022/12/04 01:17:32;;;;;;;10.00;9.50;;;8.20;99.90;;;;;;4226791;28;20047;-84
2022/12/04 01:19:51;;;;;;;9.55;9.15;;;8.50;99.90;;;;;;4217959;28;20273;-84
2022/12/04 01:22:12;;;;;;;10.18;9.38;;;8.70;99.90;;;;;;4219273;28;20054;-84
2022/12/04 01:24:31;;;;;;;9.05;8.63;;;8.80;99.90;;;;;;4232243;28;20047;-84
2022/12/04 01:26:51;;;;;;;8.73;8.38;;;9.00;99.90;;;;;;4221971;28;20050;-84
2022/12/04 01:29:11;;;;;;;9.05;8.75;;;9.20;99.90;;;;;;4219305;28;20074;-84
2022/12/04 01:31:31;;;;;;;9.57;8.80;;;9.10;99.90;;;;;;4230134;28;20085;-84
2022/12/04 01:33:51;;;;;;;8.32;7.88;;;9.00;99.90;;;;;;4216401;28;20362;-84
2022/12/04 01:36:13;;;;;;;9.60;9.20;;;9.00;99.90;;;;;;4217228;28;20058;-84
2022/12/04 01:38:34;;;;;;;7.82;7.53;;;9.00;99.90;;;;;;4220793;28;20048;-84
2022/12/04 01:40:55;;;;;;;7.15;7.05;;;9.00;99.90;;;;;;4234449;28;20096;-84
2022/12/04 01:43:15;;;;;;;7.40;7.20;;;9.20;99.90;;;;;;4228785;28;20054;-84
2022/12/04 01:45:41;;;;;;;8.73;8.15;;;9.20;99.90;;;;;;4231393;28;20050;-84
2022/12/04 01:48:11;;;;;;;7.95;7.65;;;9.20;99.90;;;;;;4218246;28;20385;-84
2022/12/04 01:50:32;;;;;;;7.28;6.78;;;9.00;99.90;;;;;;4229718;28;20074;-84
2022/12/04 01:52:52;;;;;;;9.98;6.97;;;8.80;99.90;;;;;;4210936;28;20074;-84
2022/12/04 01:55:12;;;;;;;9.27;8.73;;;8.70;99.90;;;;;;4230134;28;20047;-84
2022/12/04 01:57:32;;;;;;;10.20;9.57;;;8.50;99.90;;;;;;4235816;28;20051;-84
2022/12/04 02:00:01;;;;;;;9.05;8.65;;;8.30;99.90;;;;;;4231255;28;20043;-84
2022/12/04 02:02:36;;;;;;;9.15;8.52;;;8.20;99.90;;;;;;4218409;28;20047;-84
2022/12/04 02:04:56;;;;;;;8.70;8.20;;;8.10;99.90;;;;;;4230613;28;20085;-84
2022/12/04 02:07:15;;;;;;;7.35;7.15;;;8.00;99.90;;;;;;4227932;28;20238;-84
2022/12/04 02:09:38;;;;;;;8.52;8.30;;;8.10;99.90;;;;;;4221382;28;20146;-84
2022/12/04 02:12:10;;;;;;;7.82;7.63;;;8.00;99.90;;;;;;4233254;28;20098;-84
2022/12/04 02:14:51;;;;;;;8.82;8.30;;;8.00;99.90;;;;;;4226596;28;20043;-84
2022/12/04 02:17:26;;;;;;;8.63;8.32;;;8.00;99.90;;;;;;4231466;28;20055;-84
2022/12/04 02:19:57;;;;;;;9.30;9.00;;;8.00;99.90;;;;;;4231175;28;20043;-84
2022/12/04 02:22:47;;;;;;;8.02;7.63;;;8.00;99.90;;;;;;4231205;28;20066;-84
2022/12/04 02:25:42;;;;;;;8.68;8.25;;;7.90;99.90;;;;;;4213645;28;20107;-83
2022/12/04 02:28:08;;;;;;;7.07;6.78;;;7.90;99.90;;;;;;4231371;28;20065;-84
2022/12/04 02:30:30;;;;;;;6.78;6.57;;;7.90;99.90;;;;;;4232847;28;20085;-84
2022/12/04 02:33:02;;;;;;;7.43;7.17;;;8.00;99.90;;;;;;4215438;28;20346;-84
2022/12/04 02:35:38;;;;;;;8.13;7.93;;;8.00;99.90;;;;;;4229007;28;20331;-84
2022/12/04 02:38:47;;;;;;;7.32;7.00;;;8.00;99.90;;;;;;4227171;28;20050;-84
2022/12/04 02:41:13;;;;;;;7.70;7.03;;;8.00;99.90;;;;;;4212962;28;20263;-84
2022/12/04 02:43:48;;;;;;;8.07;7.78;;;8.10;99.90;;;;;;4217184;28;20243;-84
2022/12/04 02:46:17;;;;;;;9.00;8.70;;;8.00;99.90;;;;;;4215913;28;20051;-84
2022/12/04 02:48:41;;;;;;;9.73;9.20;;;8.10;99.90;;;;;;4215058;28;20329;-84
2022/12/04 02:51:04;;;;;;;9.70;9.20;;;8.00;99.90;;;;;;4228244;28;20093;-84
2022/12/04 02:53:33;;;;;;;8.52;8.20;;;8.00;99.90;;;;;;4215585;28;20050;-84
2022/12/04 02:55:57;;;;;;;8.52;8.27;;;8.00;99.90;;;;;;4229561;28;20385;-84
2022/12/04 02:58:49;;;;;;;8.30;7.88;;;8.00;99.90;;;;;;4214709;28;20090;-84
2022/12/04 03:01:19;;;;;;;9.23;8.82;;;8.00;99.90;;;;;;4193105;28;20096;-84
2022/12/04 03:03:40;;;;;;;8.25;8.05;;;8.10;99.90;;;;;;4225939;28;20043;-84
2022/12/04 03:06:05;;;;;;;9.23;8.75;;;8.10;99.90;;;;;;4216048;28;20044;-84
2022/12/04 03:08:32;;;;;;;7.82;7.55;;;8.10;99.90;;;;;;4219899;28;20052;-84
2022/12/04 03:10:56;;;;;;;7.55;7.03;;;8.10;99.90;;;;;;4217813;28;20059;-84
2022/12/04 03:13:25;;;;;;;11.25;10.57;;;8.10;99.90;;;;;;4222753;28;20606;-84
2022/12/04 03:16:01;;;;;;;10.27;9.75;;;8.10;99.90;;;;;;4211836;28;20067;-84
2022/12/04 03:18:35;;;;;;;10.73;10.15;;;8.10;99.90;;;;;;4232201;28;20055;-84
2022/12/04 03:21:01;;;;;;;10.38;9.88;;;8.10;99.90;;;;;;4229485;28;20146;-85
2022/12/04 03:23:49;;;;;;;10.45;10.15;;;8.00;99.90;;;;;;4230642;28;20080;-84
2022/12/04 03:26:21;;;;;;;9.70;9.20;;;8.00;99.90;;;;;;4214056;28;20071;-85
2022/12/04 03:28:47;;;;;;;8.95;8.60;;;8.00;99.90;;;;;;4218131;28;20291;-85
2022/12/04 03:31:09;;;;;;;10.50;9.93;;;8.00;99.90;;;;;;4227716;28;20088;-85
2022/12/04 03:33:36;;;;;;;9.48;9.15;;;8.00;99.90;;;;;;4217802;28;20055;-85
2022/12/04 03:36:06;;;;;;;10.25;9.85;;;7.90;99.90;;;;;;4222706;28;20125;-85
2022/12/04 03:38:32;;;;;;;10.30;9.80;;;7.90;99.90;;;;;;4231219;28;20120;-84
2022/12/04 03:41:00;;;;;;;10.85;10.23;;;7.90;99.90;;;;;;4215317;28;20076;-85
2022/12/04 03:43:46;;;;;;;9.43;9.18;;;7.90;99.90;;;;;;4216206;28;20114;-85
2022/12/04 03:46:10;;;;;;;10.43;9.52;;;7.90;99.90;;;;;;4214383;28;20083;-84
2022/12/04 03:48:34;;;;;;;9.05;8.75;;;7.90;99.90;;;;;;4221868;28;20343;-85
2022/12/04 03:50:53;;;;;;;9.30;9.00;;;7.90;99.90;;;;;;4229092;28;20111;-84
2022/12/04 03:53:29;;;;;;;9.75;9.15;;;7.90;99.90;;;;;;4223423;28;20050;-84
2022/12/04 03:56:04;;;;;;;9.23;9.02;;;7.90;99.90;;;;;;4222519;28;20039;-85
2022/12/04 03:58:30;;;;;;;8.65;8.35;;;7.90;99.90;;;;;;4232615;28;20085;-85
2022/12/04 04:00:54;;;;;;;10.60;10.10;;;8.00;99.90;;;;;;4213883;28;20073;-85
2022/12/04 04:03:26;;;;;;;8.65;8.45;;;7.90;99.90;;;;;;4221768;28;20039;-85
2022/12/04 04:05:52;;;;;;;9.23;8.88;;;7.90;99.90;;;;;;4229509;28;20059;-85
2022/12/04 04:08:26;;;;;;;11.57;10.75;;;7.90;99.90;;;;;;4218498;28;20373;-85
2022/12/04 04:11:11;;;;;;;10.23;9.70;;;7.80;99.90;;;;;;4224601;28;20137;-85
2022/12/04 04:24:43;;;;;;;9.70;9.40;;;7.80;99.90;;;;;;4225187;28;20047;-84
2022/12/04 04:27:03;;;;;;;9.88;9.35;;;7.80;99.90;;;;;;4228520;28;20050;-85
2022/12/04 04:29:23;;;;;;;9.68;9.38;;;7.80;99.90;;;;;;4219469;28;20047;-84
2022/12/04 04:32:25;;;;;;;9.32;8.80;;;7.80;99.90;;;;;;4211263;28;20268;-84
2022/12/04 04:35:02;;;;;;;10.60;10.07;;;7.70;99.90;;;;;;4212129;28;20088;-85
2022/12/04 04:37:38;;;;;;;9.02;8.57;;;7.70;99.90;;;;;;4214826;28;20097;-85
2022/12/04 04:40:19;;;;;;;9.18;8.68;;;7.70;99.90;;;;;;4232095;28;20231;-85
2022/12/04 04:42:44;;;;;;;9.90;9.60;;;7.70;99.90;;;;;;4230097;28;20043;-85
2022/12/04 04:45:25;;;;;;;8.50;7.95;;;7.70;99.90;;;;;;4215111;28;20108;-85
2022/12/04 04:48:20;;;;;;;10.90;10.15;;;7.70;99.90;;;;;;4230433;28;20239;-85
2022/12/04 04:50:41;;;;;;;9.07;8.82;;;7.80;99.90;;;;;;4227724;28;20047;-85
2022/12/04 04:53:05;;;;;;;9.07;8.45;;;7.90;99.90;;;;;;4220067;28;20054;-85
2022/12/04 04:55:25;;;;;;;9.18;8.68;;;7.90;99.90;;;;;;4218526;28;20074;-85
2022/12/04 04:57:46;;;;;;;9.43;9.02;;;7.90;99.90;;;;;;4219115;28;20079;-85
2022/12/04 05:00:18;;;;;;;9.25;8.93;;;7.90;99.90;;;;;;4219372;28;20055;-85
2022/12/04 05:02:38;;;;;;;9.13;8.80;;;7.90;99.90;;;;;;4221379;28;20047;-85
2022/12/04 05:04:58;;;;;;;7.25;7.05;;;7.90;99.90;;;;;;4212135;28;20056;-85
2022/12/04 05:07:18;;;;;;;9.10;8.80;;;8.00;99.90;;;;;;4237220;28;20084;-84
2022/12/04 05:09:38;;;;;;;9.32;8.57;;;7.90;99.90;;;;;;4218715;28;20048;-85
2022/12/04 05:12:00;;;;;;;9.75;9.40;;;7.90;99.90;;;;;;4228618;28;20051;-85
2022/12/04 05:14:20;;;;;;;9.50;9.10;;;7.90;99.90;;;;;;4229585;28;20231;-85
2022/12/04 05:16:40;;;;;;;8.52;8.32;;;7.90;99.90;;;;;;4234151;28;20061;-85
2022/12/04 05:21:40;;;;;;;6.18;5.97;;;7.90;99.90;;;;;;4230886;28;20047;-85
2022/12/04 05:24:00;;;;;;;6.43;5.90;;;7.90;99.90;;;;;;4216317;28;20058;-85
2022/12/04 05:26:20;;;;;;;6.05;5.63;;;8.00;99.90;;;;;;4219774;28;20047;-85
2022/12/04 05:28:41;;;;;;;5.93;5.72;;;8.10;99.90;;;;;;4229956;28;20047;-84
2022/12/04 05:31:02;;;;;;;7.82;7.30;;;8.10;99.90;;;;;;4221325;28;20086;-85
2022/12/04 05:33:22;;;;;;;8.07;7.78;;;8.10;99.90;;;;;;4219369;28;20047;-85
2022/12/04 05:35:42;;;;;;;9.40;9.00;;;8.00;99.90;;;;;;4218035;28;20047;-85
2022/12/04 05:38:02;;;;;;;10.18;9.48;;;8.00;99.90;;;;;;4235455;28;20055;-85
2022/12/04 05:40:22;;;;;;;11.05;10.38;;;7.90;99.90;;;;;;4220229;28;20381;-85
2022/12/04 05:42:42;;;;;;;10.35;9.95;;;7.90;99.90;;;;;;4222002;28;20081;-85
2022/12/04 05:45:01;;;;;;;8.55;8.15;;;7.80;99.90;;;;;;4231836;28;20046;-85
2022/12/04 05:47:21;;;;;;;8.13;7.93;;;7.80;99.90;;;;;;4219364;28;20307;-85
2022/12/04 05:49:40;;;;;;;4.53;4.43;;;7.80;99.90;;;;;;4235901;28;20247;-84
2022/12/04 05:52:04;;;;;;;4.63;4.38;;;8.10;99.90;;;;;;4223776;28;20238;-84
2022/12/04 05:54:25;;;;;;;4.10;4.00;;;8.20;99.90;;;;;;4223479;28;20107;-84
2022/12/04 05:56:45;;;;;;;5.35;5.18;;;8.10;99.90;;;;;;4237106;28;20089;-84
2022/12/04 05:59:05;;;;;;;5.03;4.90;;;8.10;99.90;;;;;;4231854;28;20399;-84
2022/12/04 06:01:24;;;;;;;4.80;4.57;;;8.10;99.90;;;;;;4215166;28;20281;-84
2022/12/04 06:03:44;;;;;;;4.18;4.00;;;8.00;99.90;;;;;;4223156;28;20274;-84
2022/12/04 06:06:09;;;;;;;4.43;4.22;;;8.10;99.90;;;;;;4232392;28;20243;-84
2022/12/04 06:08:30;;;;;;;3.05;3.05;;;8.00;99.90;;;;;;4214800;28;20142;-84
2022/12/04 06:10:50;;;;;;;4.40;4.20;;;8.10;99.90;;;;;;4215420;28;20060;-84
2022/12/04 06:13:10;;;;;;;3.50;3.40;;;8.10;99.90;;;;;;4230133;28;20042;-84
2022/12/04 06:15:29;;;;;;;3.22;3.22;;;8.10;99.90;;;;;;4219783;28;20399;-84
2022/12/04 06:17:49;;;;;;;4.10;3.90;;;8.10;99.90;;;;;;4226470;28;20073;-84
2022/12/04 06:20:10;;;;;;;3.83;3.83;;;8.00;99.90;;;;;;4230486;28;20092;-84
2022/12/04 06:22:31;;;;;;;5.18;3.85;;;8.00;99.90;;;;;;4218626;28;20040;-84
2022/12/04 06:24:51;;;;;;;3.20;3.00;;;8.00;99.90;;;;;;4228518;28;20047;-84
2022/12/04 06:27:11;;;;;;;3.60;3.50;;;8.10;99.90;;;;;;4226677;28;20108;-84
2022/12/04 06:29:47;;;;;;;3.17;3.13;;;8.10;99.90;;;;;;4218803;28;20088;-84
2022/12/04 06:32:07;;;;;;;3.55;3.45;;;8.10;99.90;;;;;;4228189;28;20076;-84
2022/12/04 06:34:27;;;;;;;3.30;3.30;;;8.10;99.90;;;;;;4214233;28;20087;-84
2022/12/04 06:36:47;;;;;;;4.50;4.40;;;8.10;99.90;;;;;;4217076;28;20069;-84
2022/12/04 06:39:09;;;;;;;2.80;2.60;;;8.20;99.90;;;;;;4215656;28;20055;-84
2022/12/04 06:41:34;;;;;;;2.50;2.50;;;8.20;99.90;;;;;;4227922;28;20081;-84
2022/12/04 06:43:55;;;;;;;2.40;2.40;;;8.20;99.90;;;;;;4218793;28;20047;-84
2022/12/04 06:46:23;;;;;;;4.10;3.17;;;8.20;99.90;;;;;;4229202;28;20079;-84
2022/12/04 06:48:44;;;;;;;3.03;3.03;;;8.30;99.90;;;;;;4229592;28;20036;-83
2022/12/04 06:51:18;;;;;;;2.67;2.58;;;8.40;99.90;;;;;;4225525;28;20051;-83
2022/12/04 06:53:38;;;;;;;3.33;3.33;;;8.50;99.90;;;;;;4230268;28;20042;-83
2022/12/04 06:56:01;;;;;;;2.83;2.83;;;8.60;99.90;;;;;;4235630;28;20043;-84
2022/12/04 06:58:21;;;;;;;4.20;3.85;;;8.50;99.90;;;;;;4215433;28;20101;-84
2022/12/04 07:00:40;;;;;;;4.03;3.85;;;8.60;99.90;;;;;;4232003;28;20074;-83
2022/12/04 07:03:01;;;;;;;4.85;4.72;;;8.70;99.90;;;;;;4235041;28;20058;-84
2022/12/04 07:05:20;;;;;;;4.50;4.40;;;8.60;99.90;;;;;;4217334;28;20055;-84
2022/12/04 07:07:40;;;;;;;5.55;5.45;;;8.60;99.90;;;;;;4221704;28;20055;-84
2022/12/04 07:10:02;;;;;;;3.22;3.13;;;8.70;99.90;;;;;;4217408;28;20125;-83
2022/12/04 07:12:22;;;;;;;2.83;2.83;;;8.70;99.90;;;;;;4233295;28;20041;-84
2022/12/04 07:14:41;;;;;;;2.53;2.45;;;8.80;99.90;;;;;;4227710;28;20067;-83
2022/12/04 07:17:01;;;;;;;2.53;2.53;;;8.80;99.90;;;;;;4217757;28;20123;-84
2022/12/04 07:19:21;;;;;;;3.15;3.05;;;8.80;99.90;;;;;;4232137;28;20145;-84
2022/12/04 07:21:41;;;;;;;3.65;3.45;;;8.80;99.90;;;;;;4219477;28;20059;-84
2022/12/04 07:24:02;;;;;;;3.90;3.70;;;8.80;99.90;;;;;;4217079;28;20162;-84
2022/12/04 07:26:22;;;;;;;3.15;3.15;;;8.80;99.90;;;;;;4232118;28;20362;-84
2022/12/04 07:28:45;;;;;;;3.95;3.60;;;8.80;99.90;;;;;;4213575;28;20044;-84
2022/12/04 07:31:07;;;;;;;3.15;3.15;;;8.80;99.90;;;;;;4225845;28;20047;-85
2022/12/04 07:33:27;;;;;;;3.67;3.58;;;8.80;99.90;;;;;;4225408;28;20044;-85
2022/12/04 07:35:55;;;;;;;3.83;3.72;;;8.70;99.90;;;;;;4222708;28;20077;-79
2022/12/04 07:38:15;;;;;;;2.47;2.47;;;8.70;99.90;;;;;;4228214;28;20039;-79
2022/12/04 07:40:36;;;;;;;2.80;2.70;;;8.70;99.90;;;;;;4234652;28;20047;-79
2022/12/04 07:42:56;;;;;;;3.20;3.20;;;8.70;99.90;;;;;;4230259;28;20078;-79
2022/12/04 07:45:16;;;;;;;2.90;2.80;;;8.70;99.90;;;;;;4229200;28;20053;-79
2022/12/04 07:47:36;;;;;;;3.47;3.47;;;8.70;99.90;;;;;;4231906;28;20073;-79
2022/12/04 07:49:56;;;;;;;3.35;3.35;;;8.60;99.90;;;;;;4231089;28;20063;-79
2022/12/04 07:52:16;;;;;;;2.88;2.88;;;8.70;99.90;;;;;;4233103;28;20059;-79
2022/12/04 07:54:36;;;;;;;3.10;3.10;;;8.70;99.90;;;;;;4232444;28;20047;-79
2022/12/04 07:56:56;;;;;;;2.78;2.78;;;8.70;99.90;;;;;;4232349;28;20058;-79
2022/12/04 07:59:16;;;;;;;3.70;3.70;;;8.70;99.90;;;;;;4231253;28;20844;-79
2022/12/04 08:01:36;;;;;;;3.40;3.20;;;8.70;99.90;;;;;;4222041;28;20080;-79
2022/12/04 08:03:57;;;;;;;3.70;3.70;;;8.70;99.90;;;;;;4224804;28;20051;-79
2022/12/04 08:06:20;;;;;;;4.10;4.10;;;8.70;99.90;;;;;;4227224;28;20062;-79
2022/12/04 08:08:40;;;;;;;2.97;2.97;;;8.70;99.90;;;;;;4229942;28;20075;-79
2022/12/04 08:11:04;;;;;;;3.00;3.00;;;8.70;99.90;;;;;;4232072;28;20062;-79
2022/12/04 08:13:24;;;;;;;3.95;3.95;;;8.80;99.90;;;;;;4228711;28;20365;-79
2022/12/04 08:15:44;;;;;;;3.50;3.40;;;8.80;99.90;;;;;;4229098;28;20058;-79
2022/12/04 08:18:04;;;;;;;2.90;2.90;;;8.80;99.90;;;;;;4230399;28;20404;-79
2022/12/04 08:20:24;;;;;;;2.55;2.55;;;8.80;99.90;;;;;;4215582;28;20043;-79
2022/12/04 08:22:44;;;;;;;2.47;2.47;;;8.90;99.90;;;;;;4233265;28;20051;-79
2022/12/04 08:25:04;;;;;;;3.60;3.50;;;8.90;99.90;;;;;;4230032;28;20239;-79
2022/12/04 08:27:24;;;;;;;3.65;3.55;;;9.00;99.90;;;;;;4231165;28;20043;-79
2022/12/04 08:29:43;;;;;;;3.13;2.92;;;9.00;99.90;;;;;;4234101;28;20269;-79
2022/12/04 08:32:04;;;;;;;3.00;2.92;;;9.00;99.90;;;;;;4229243;28;20051;-79
2022/12/04 08:34:24;;;;;;;3.15;3.15;;;9.00;99.90;;;;;;4232604;28;20054;-79
2022/12/04 08:36:44;;;;;;;4.80;4.60;;;9.00;99.90;;;;;;4225056;28;20370;-79
2022/12/04 08:39:04;;;;;;;4.70;4.60;;;9.10;99.90;;;;;;4232989;28;20361;-79
2022/12/04 08:41:25;;;;;;;5.13;5.03;;;9.10;99.90;;;;;;4233045;28;20050;-79
2022/12/04 08:43:45;;;;;;;3.65;3.55;;;9.10;99.90;;;;;;4233199;28;20274;-79
2022/12/04 08:46:07;;;;;;;4.60;4.47;;;9.10;99.90;;;;;;4235029;28;20140;-79
2022/12/04 08:48:28;;;;;;;4.13;3.92;;;9.10;99.90;;;;;;4227603;28;20061;-79
2022/12/04 08:50:48;;;;;;;4.05;4.00;;;9.10;99.90;;;;;;4228683;28;20051;-79
2022/12/04 08:53:08;;;;;;;4.20;4.10;;;9.10;99.90;;;;;;4231516;28;20231;-79
2022/12/04 08:55:27;;;;;;;4.25;4.15;;;9.10;99.90;;;;;;4224404;28;20171;-79
2022/12/04 08:57:47;;;;;;;4.90;4.60;;;9.20;99.90;;;;;;4236587;28;20074;-79
2022/12/04 09:00:07;;;;;;;4.10;4.05;;;9.20;99.90;;;;;;4231429;28;20115;-79
2022/12/04 09:02:27;;;;;;;3.55;3.50;;;9.20;99.90;;;;;;4232142;28;20049;-79
2022/12/04 09:04:46;;;;;;;4.60;4.50;;;9.30;99.90;;;;;;4217198;28;20592;-79
2022/12/04 09:07:06;;;;;;;3.05;2.85;;;9.30;99.90;;;;;;4227153;28;20090;-79
2022/12/04 09:09:26;;;;;;;2.92;2.80;;;9.30;99.90;;;;;;4220516;28;20154;-79
2022/12/04 09:11:46;;;;;;;3.90;3.80;;;9.30;99.90;;;;;;4224308;28;20085;-79
2022/12/04 09:14:06;;;;;;;4.22;4.13;;;9.30;99.90;;;;;;4228397;28;20039;-79
2022/12/04 09:16:26;;;;;;;3.75;3.60;;;9.40;99.90;;;;;;4233898;28;20065;-79
2022/12/04 09:18:47;;;;;;;3.30;3.20;;;9.40;99.90;;;;;;4232578;28;20369;-79
2022/12/04 09:21:09;;;;;;;3.95;3.85;;;9.40;99.90;;;;;;4230592;28;20059;-79
2022/12/04 09:23:29;;;;;;;5.78;5.57;;;9.40;99.90;;;;;;4228153;28;20280;-81
2022/12/04 09:25:49;;;;;;;5.60;5.40;;;9.40;99.90;;;;;;4235521;28;20054;-80
2022/12/04 09:28:09;;;;;;;5.00;4.90;;;9.40;99.90;;;;;;4230722;28;20082;-81
2022/12/04 09:30:29;;;;;;;4.40;4.10;;;9.40;99.90;;;;;;4231254;28;20055;-80
2022/12/04 09:32:50;;;;;;;3.60;3.50;;;9.50;99.90;;;;;;4232662;28;20222;-80
2022/12/04 09:35:09;;;;;;;3.17;3.08;;;9.60;99.90;;;;;;4229449;28;20146;-80
2022/12/04 09:37:31;;;;;;;3.42;3.33;;;9.50;99.90;;;;;;4233302;28;20076;-81
2022/12/04 09:39:50;;;;;;;3.00;3.00;;;9.50;99.90;;;;;;4225682;28;20108;-81
2022/12/04 09:42:16;;;;;;;2.83;2.42;;;9.50;99.90;;;;;;4232968;28;20046;-81
2022/12/04 09:44:52;;;;;;;2.20;2.20;;;9.50;99.90;;;;;;4230854;28;20079;-81
2022/12/04 09:47:37;;;;;;;3.25;3.05;;;9.60;99.90;;;;;;4230032;28;20089;-80
2022/12/04 09:50:00;;;;;;;3.35;3.20;;;9.60;99.90;;;;;;4233000;28;20300;-80
2022/12/04 09:52:38;;;;;;;2.47;2.38;;;9.50;99.90;;;;;;4230284;28;20081;-80
2022/12/04 09:55:02;;;;;;;2.88;2.83;;;9.50;99.90;;;;;;4226704;28;20042;-80
2022/12/04 09:57:35;;;;;;;2.53;2.53;;;9.50;99.90;;;;;;4228769;28;20085;-80
2022/12/04 09:59:56;;;;;;;4.25;4.13;;;9.50;99.90;;;;;;4231862;28;20108;-81
2022/12/04 10:02:33;;;;;;;3.33;3.33;;;9.50;99.90;;;;;;4218467;28;20040;-81
2022/12/04 10:04:55;;;;;;;2.78;2.67;;;9.60;99.90;;;;;;4215969;28;20055;-81
2022/12/04 10:08:01;;;;;;;3.30;3.30;;;9.50;99.90;;;;;;4230956;28;20326;-80
2022/12/04 10:10:35;;;;;;;2.85;2.50;;;9.50;99.90;;;;;;4228797;28;20061;-80
2022/12/04 10:13:20;;;;;;;3.75;3.75;;;9.50;99.90;;;;;;4228570;28;20373;-80
2022/12/04 10:15:55;;;;;;;4.15;3.95;;;9.50;99.90;;;;;;4229366;28;20262;-80
2022/12/04 10:18:17;;;;;;;4.25;3.85;;;9.50;99.90;;;;;;4227072;28;20082;-80
2022/12/04 10:20:58;;;;;;;3.78;3.78;;;9.50;99.90;;;;;;4227747;28;20144;-80
2022/12/04 10:23:38;;;;;;;4.80;4.45;;;9.50;99.90;;;;;;4229690;28;20302;-80
2022/12/04 10:26:01;;;;;;;3.78;3.67;;;9.60;99.90;;;;;;4213523;28;20118;-80
2022/12/04 10:28:28;;;;;;;4.65;4.45;;;9.60;99.90;;;;;;4230842;28;20235;-80
2022/12/04 10:30:51;;;;;;;4.20;3.92;;;9.70;99.90;;;;;;4230149;28;20047;-80
2022/12/04 10:33:22;;;;;;;3.38;3.28;;;9.70;99.90;;;;;;4229697;28;20453;-80
2022/12/04 10:35:44;;;;;;;3.58;3.38;;;9.80;99.90;;;;;;4226820;28;20039;-80
2022/12/04 10:38:13;;;;;;;3.70;3.60;;;9.70;99.90;;;;;;4218128;28;20047;-80
2022/12/04 10:40:51;;;;;;;3.72;3.53;;;9.70;99.90;;;;;;4231904;28;20054;-80
2022/12/04 10:43:35;;;;;;;4.32;4.22;;;9.80;99.90;;;;;;4214968;28;20274;-80
2022/12/04 10:45:55;;;;;;;4.53;4.18;;;9.80;99.90;;;;;;4232166;28;20392;-80
2022/12/04 10:48:23;;;;;;;4.03;3.92;;;9.80;99.90;;;;;;4229782;28;20046;-80
2022/12/04 10:50:43;;;;;;;4.90;4.70;;;9.70;99.90;;;;;;4226708;28;20088;-80
2022/12/04 10:53:03;;;;;;;4.70;4.60;;;9.80;99.90;;;;;;4227387;28;20034;-80
2022/12/04 10:55:33;;;;;;;5.40;5.15;;;9.80;99.90;;;;;;4231390;28;20062;-80
2022/12/04 10:57:53;;;;;;;5.32;5.22;;;9.80;99.90;;;;;;4216845;28;20051;-81
2022/12/04 11:00:31;;;;;;;6.10;4.70;;;9.90;99.90;;;;;;4220842;28;20115;-81
2022/12/04 11:02:53;;;;;;;4.78;4.47;;;9.90;99.90;;;;;;4227764;28;20231;-80
2022/12/04 11:05:28;;;;;;;5.30;4.85;;;9.90;99.90;;;;;;4232177;28;20078;-81
2022/12/04 11:07:50;;;;;;;7.63;7.43;;;9.90;99.90;;;;;;4223573;28;20094;-81
2022/12/04 11:10:28;;;;;;;6.82;6.45;;;9.80;99.90;;;;;;4233062;28;20108;-81
2022/12/04 11:13:01;;;;;;;5.97;5.78;;;9.80;99.90;;;;;;4230433;28;20310;-83
2022/12/04 11:15:21;;;;;;;6.25;5.88;;;9.90;99.90;;;;;;4229154;28;20080;-83
2022/12/04 11:17:41;;;;;;;6.10;5.90;;;9.80;99.90;;;;;;4224816;28;20416;-83
2022/12/04 11:20:06;;;;;;;7.05;6.38;;;9.80;99.90;;;;;;4234413;28;20074;-83
2022/12/04 11:22:26;;;;;;;2.85;2.75;;;9.80;99.90;;;;;;4233200;28;20076;-83
2022/12/04 11:24:53;;;;;;;6.20;5.82;;;9.70;99.90;;;;;;4228421;28;20282;-83
2022/12/04 11:27:28;;;;;;;6.57;6.35;;;9.70;99.90;;;;;;4230144;28;20085;-83
2022/12/04 11:29:48;;;;;;;5.78;5.47;;;9.80;99.90;;;;;;4228085;28;20085;-83
2022/12/04 11:32:25;;;;;;;4.22;4.13;;;9.80;99.90;;;;;;4221766;28;20054;-84
2022/12/04 11:34:45;;;;;;;2.97;2.97;;;9.80;99.90;;;;;;4228839;28;20113;-83
2022/12/04 11:37:15;;;;;;;2.47;2.47;;;9.80;99.90;;;;;;4229409;28;20369;-84
2022/12/04 11:39:38;;;;;;;4.00;3.90;;;9.90;99.90;;;;;;4217974;28;20070;-84
2022/12/04 11:42:22;;;;;;;3.25;3.15;;;10.00;99.90;;;;;;4227721;28;20051;-83
2022/12/04 11:44:54;;;;;;;;;;;10.00;99.90;;;;;;4228880;28;20039;-84
2022/12/04 11:47:19;;;;;;;2.75;2.70;;;10.10;99.90;;;;;;4227337;28;19922;-84
2022/12/04 11:49:38;;;;;;;3.47;3.20;;;10.10;99.90;;;;;;4218174;28;20059;-84
2022/12/04 11:52:44;;;;;;;3.33;2.78;;;10.00;99.90;;;;;;4215121;28;20086;-84
2022/12/04 11:55:37;;;;;;;3.13;3.03;;;10.10;99.90;;;;;;4224157;28;20062;-84
2022/12/04 11:58:22;;;;;;;2.95;2.90;;;10.10;99.90;;;;;;4226940;28;20047;-83
2022/12/04 12:00:58;;;;;;;2.15;2.15;;;10.00;99.90;;;;;;4228154;28;20102;-83
2022/12/04 12:03:26;;;;;;;2.80;2.70;;;10.10;99.90;;;;;;4212194;28;20047;-83
2022/12/04 12:06:11;;;;;;;3.28;3.17;;;10.10;99.90;;;;;;4228047;28;20051;-83
2022/12/04 12:08:40;;;;;;;3.10;3.00;;;10.00;99.90;;;;;;4230231;28;20085;-83
2022/12/04 12:11:20;;;;;;;2.88;2.85;;;10.00;99.90;;;;;;4212856;28;20079;-83
2022/12/04 12:13:54;;;;;;;3.38;3.28;;;9.90;99.90;;;;;;4225041;28;20055;-83
2022/12/04 12:16:53;;;;;;;3.45;3.35;;;9.80;99.90;;;;;;4229208;28;20050;-83
2022/12/04 12:19:47;;;;;;;2.78;2.75;;;9.80;99.90;;;;;;4194716;28;20062;-83
2022/12/04 12:22:27;;;;;;;2.58;2.58;;;9.80;99.90;;;;;;4217158;28;20075;-83
2022/12/04 12:25:31;;;;;;;3.20;3.10;;;9.80;99.90;;;;;;4229833;28;20065;-83
2022/12/04 12:27:51;;;;;;;;;;;9.80;99.90;;;;;;4224762;28;20090;-83
2022/12/04 12:30:16;;;;;;;3.33;3.22;;;9.90;99.90;;;;;;4213965;28;19923;-83
2022/12/04 12:32:57;;;;;;;3.40;3.25;;;10.00;99.90;;;;;;4226274;28;20039;-83
2022/12/04 12:35:29;;;;;;;3.13;3.03;;;10.10;99.90;;;;;;4220853;28;20047;-83
2022/12/04 12:37:56;;;;;;;2.67;2.40;;;10.20;99.90;;;;;;4227477;28;20043;-83
2022/12/04 12:40:27;;;;;;;3.00;2.95;;;10.40;99.90;;;;;;4213689;28;20051;-83
2022/12/04 12:43:04;;;;;;;2.50;2.50;;;10.60;99.90;;;;;;4226714;28;20047;-83
2022/12/04 12:45:43;;;;;;;2.58;2.47;;;10.90;99.90;;;;;;4213753;28;20278;-83
2022/12/04 12:48:29;;;;;;;3.20;3.00;;;11.00;99.90;;;;;;4230445;28;20054;-83
2022/12/04 12:51:00;;;;;;;3.78;3.67;;;11.00;99.90;;;;;;4203995;28;20226;-83
2022/12/04 12:53:44;;;;;;;2.08;2.08;;;11.00;99.90;;;;;;4226940;28;20288;-83
2022/12/04 12:56:06;;;;;;;2.40;2.20;;;11.00;99.90;;;;;;4229668;28;20112;-83
2022/12/04 12:58:44;;;;;;;2.88;2.78;;;11.10;99.90;;;;;;4220298;28;20389;-83
2022/12/04 13:01:16;;;;;;;2.93;2.83;;;11.20;99.90;;;;;;4224899;28;20050;-83